Terminal Aerodrome Forecast
Issued by NWS

Home | Current Version | Previous Version | Text Only | Print | Product List | Glossary On
Versions: 1 2 3 4 5 6 7 8 9 10 11 12 13 14 15
000
FTUS43 KILX 281722
TAFCMI
TAF
KCMI 281722Z 2818/2918 34016G23KT P6SM SCT030 BKN070
      TEMPO 2818/2819 BKN030
     FM290000 33009KT P6SM BKN060
     FM290900 36009KT P6SM VCSH SCT007 OVC015
     FM291700 01013G21KT P6SM VCSH BKN015=

USA.gov is the U.S. government's official web portal to all federal, state and local government web resources and services.